• Join FlightAware (Why Join?)
  • Login
  • US Flag 
06:27PM EST


 

Airport Tracker/Info


-or-


 

Live Flight TrackerFlight Track Log ✈ SWA2520 ✈ 05-May-2013 ✈ KLAX - KRNO

Flight Track Log - Related Links

Times and Time Zones

All times are in EDT time to prevent confusion due to time zone crossing. See the SWA2520 flight status page for this flight to view local times or setup timezone preferences in your user account.

Time Position Orientation Groundspeed Altitude Reporting Facility
EDT Latitude Longitude Course Direction KTS MPH feet Rate Location/Type
09:23PM 33.9886 -118.3114 60° Northeast 246 283 4,000  Level Los Angeles Center
09:24PM 34.0578 -118.2694 27° Northeast 279 321 7,700 3,756 Climbing Los Angeles Center
09:25PM 34.1281 -118.3222 328° Northwest 295 339 11,700 3,512 Climbing Los Angeles Center
09:26PM 34.1969 -118.3783 326° Northwest 299 344 14,900 2,081 Climbing Los Angeles Center
09:27PM 34.2925 -118.4539 327° Northwest 348 400 16,000 2,000 Climbing Los Angeles Center
09:28PM 34.3756 -118.5197 327° Northwest 357 411 19,000 2,780 Climbing Los Angeles Center
09:29PM 34.4647 -118.5892 327° Northwest 381 438 21,700 2,244 Climbing Los Angeles Center
09:30PM 34.5389 -118.6478 327° Northwest 398 458 23,600 2,195 Climbing Los Angeles Center
09:31PM 34.6517 -118.7400 326° Northwest 409 471 26,200 2,226 Climbing Los Angeles Center
09:32PM 34.7506 -118.8203 326° Northwest 424 488 28,200 1,887 Climbing Los Angeles Center
09:33PM 34.8633 -118.8722 339° North 436 502 30,100 1,935 Climbing Los Angeles Center
09:34PM 35.0050 -118.8939 353° North 452 520 32,200 2,000 Climbing Los Angeles Center
09:35PM 35.1319 -118.9142 353° North 460 529 34,200 1,951 Climbing Los Angeles Center
09:36PM 35.2611 -118.9336 353° North 467 537 36,200 1,645 Climbing Los Angeles Center
09:37PM 35.4108 -118.9583 352° North 457 526 37,600 794 Climbing Los Angeles Center
09:39PM 35.5375 -118.9794 352° North 458 527 38,000 162 Climbing Los Angeles Center
09:40PM 35.6919 -119.0028 353° North 465 535 38,000  Level Los Angeles Center
09:41PM 35.8472 -119.0306 352° North 470 541 38,000  Level Los Angeles Center
09:42PM 36.0022 -119.0558 352° North 472 543 38,000  Level Oakland Center
09:43PM 36.1333 -119.0778 352° North 476 548 38,000  Level Oakland Center
09:44PM 36.2628 -119.0994 352° North 473 544 38,000  Level Oakland Center
09:45PM 36.3925 -119.1192 353° North 477 549 38,000  Level Oakland Center
09:46PM 36.5231 -119.1397 353° North 476 548 38,000  Level Oakland Center
09:47PM 36.6503 -119.1614 352° North 465 535 38,000  Level Oakland Center
09:48PM 36.7839 -119.1839 352° North 508 585 38,000 -492 Level Oakland Center
09:49PM 36.9392 -119.2092 353° North 466 536 37,000 -984 Descending Oakland Center
09:50PM 37.0658 -119.2314 352° North 460 529 36,000 -976 Descending Oakland Center
09:51PM 37.1931 -119.2525 352° North 461 531 35,000 -927 Descending Oakland Center
09:52PM 37.3217 -119.2756 352° North 466 536 34,100 -934 Descending Oakland Center
09:53PM 37.4528 -119.3008 351° North 471 542 33,100 -934 Descending Oakland Center
09:54PM 37.5847 -119.3242 352° North 486 559 32,200 -984 Descending Oakland Center
09:55PM 37.7272 -119.3414 355° North 466 536 31,100 -1,024 Descending Oakland Center
09:56PM 37.8581 -119.3633 352° North 473 544 30,100 -976 Descending Oakland Center
09:57PM 37.9858 -119.3844 353° North 466 536 29,100 -984 Descending Oakland Center
09:58PM 38.1117 -119.4064 352° North 459 528 28,100 -1,033 Descending Oakland Center
09:59PM 38.2394 -119.4278 353° North 449 517 27,000 -1,033 Descending Oakland Center
10:00PM 38.3594 -119.4483 352° North 438 504 26,000 -1,024 Descending Oakland Center
10:01PM 38.4797 -119.4711 352° North 435 501 24,900 -1,561 Descending Oakland Center
10:02PM 38.5964 -119.4908 352° North 427 491 22,800 -2,115 Descending Oakland Center
10:03PM 38.7094 -119.5100 352° North 414 476 20,600 -2,115 Descending Oakland Center
10:05PM 38.8200 -119.5308 352° North 404 465 18,500 -2,115 Descending Oakland Center
10:06PM 38.9272 -119.5497 352° North 393 452 16,300 -2,066 Descending Oakland Center
10:07PM 39.0300 -119.5678 352° North 380 437 14,300 -1,623 Descending Oakland Center
10:08PM 39.1311 -119.5847 353° North 372 428 13,000 -1,122 Descending Oakland Center
10:09PM 39.2286 -119.6006 353° North 364 419 12,000 -1,024 Descending Oakland Center
10:10PM 39.3419 -119.6214 352° North 353 406 10,900 -1,046 Descending Oakland Center
10:10PM 39.4167 -119.6333 353° North 304 350 10,100 -1,412 Descending Northern Cal TRACON
10:11PM 39.4833 -119.6500 349° North 301 346 8,500 -1,421 Descending Northern Cal TRACON
10:12PM 39.5500 -119.6833 339° North 251 289 7,400 -1,100 Descending Northern Cal TRACON
10:13PM 39.5833 -119.7500 303° West 186 214 6,300 -1,200 Descending Northern Cal TRACON
10:14PM 39.5333 -119.7667 194° South 164 189 5,000 -1,300 Descending Northern Cal TRACON
10:16PM 39.4991 -119.7681 237° Southwest  Level Estimated
10:23PM 39.4991 -119.7681 237° Southwest  Level Estimated
10:24PM 39.4991 -119.7681 237° Southwest  Level Estimated